Long Island, Virginia
Current Conditions -  °F | °C
As of 12:55 AM on Thursday 23 Oct 2014 (Local Time) from K0V4 Reporting Station
Clear Clear  
Wind Chill: 51°   Ceiling: Unl
Heat Index: 51°   Visibility: 10mi
Dew Point: 43°   Wind: 5mph
Humidity: 75%   Direction: 280°W
Pressure: 30.01"   Gusts: NA
Location:  37.08°N, 79.1°W
Report Text: K0V4 230455Z AUTO 28004KT 10SM CLR 10/06 A3001 RMK AO1 T01030060 402000087
Loading
Personal Weather Stations






























Interactive Weather Map
Tropical Storm Tracking
New forecast layout! Learn more

10-Day Weather Forecast

Advertisements
Track Severe Weather on mobile